Time;durP1;ratioP1;P1;durP2;ratioP2;P2;SDS_P1;SDS_P2;PMS_P1;PMS_P2;Temp;Humidity;BMP_temperature;BMP_pressure;BME280_temperature;BME280_humidity;BME280_pressure;Samples;Min_cycle;Max_cycle;Signal;HPM_P1;HPM_P2
2021/11/19 00:00:41;;;;;;;8.52;4.95;;;;;;;;;;4975495;28;20043;-70
2021/11/19 00:03:09;;;;;;;8.82;5.10;;;;;;;;;;4976311;28;20047;-74
2021/11/19 00:05:37;;;;;;;13.40;4.88;;;;;;;;;;4976258;28;20042;-78
2021/11/19 00:08:05;;;;;;;9.05;4.88;;;;;;;;;;4975698;28;20039;-72
2021/11/19 00:10:33;;;;;;;7.22;4.70;;;;;;;;;;4975161;28;20047;-74
2021/11/19 00:13:00;;;;;;;11.77;5.00;;;;;;;;;;4975266;28;20356;-70
2021/11/19 00:15:29;;;;;;;10.60;4.57;;;;;;;;;;4974918;28;20434;-71
2021/11/19 00:17:57;;;;;;;9.73;4.32;;;;;;;;;;4976754;28;20382;-71
2021/11/19 00:20:28;;;;;;;7.90;4.50;;;;;;;;;;4976515;28;20043;-78
2021/11/19 00:22:59;;;;;;;8.40;4.57;;;;;;;;;;4975659;28;20049;-70
2021/11/19 00:25:27;;;;;;;7.20;4.18;;;;;;;;;;4976116;28;20557;-71
2021/11/19 00:27:56;;;;;;;11.18;4.47;;;;;;;;;;4976140;28;20046;-74
2021/11/19 00:30:25;;;;;;;8.70;4.60;;;;;;;;;;4974875;28;20051;-77
2021/11/19 00:32:52;;;;;;;11.32;4.47;;;;;;;;;;4976037;28;20490;-73
2021/11/19 00:35:21;;;;;;;8.00;4.70;;;;;;;;;;4975882;28;20133;-77
2021/11/19 00:37:50;;;;;;;7.05;4.43;;;;;;;;;;4974430;28;20519;-74
2021/11/19 00:40:22;;;;;;;9.52;4.53;;;;;;;;;;4974908;28;20046;-72
2021/11/19 00:42:49;;;;;;;6.40;4.15;;;;;;;;;;4975556;28;20049;-72
2021/11/19 00:45:17;;;;;;;7.90;4.18;;;;;;;;;;4974503;28;20141;-71
2021/11/19 00:47:49;;;;;;;7.22;4.20;;;;;;;;;;4975775;28;20047;-74
2021/11/19 00:50:17;;;;;;;7.20;3.90;;;;;;;;;;4974220;28;20093;-72
2021/11/19 00:52:46;;;;;;;8.55;4.18;;;;;;;;;;4973834;28;20078;-72
2021/11/19 00:55:14;;;;;;;7.88;5.00;;;;;;;;;;4974303;28;20051;-77
2021/11/19 00:57:42;;;;;;;8.50;4.28;;;;;;;;;;4975366;28;20126;-71
2021/11/19 01:00:13;;;;;;;6.05;4.35;;;;;;;;;;4975206;28;20045;-77
2021/11/19 01:02:46;;;;;;;6.22;4.03;;;;;;;;;;4973762;28;20042;-70
2021/11/19 01:05:14;;;;;;;9.32;4.55;;;;;;;;;;4973753;28;20073;-77
2021/11/19 01:07:42;;;;;;;8.57;4.20;;;;;;;;;;4975139;28;20050;-72
2021/11/19 01:10:15;;;;;;;6.43;4.38;;;;;;;;;;4973813;28;20395;-70
2021/11/19 01:12:43;;;;;;;6.65;4.03;;;;;;;;;;4974014;28;20098;-77
2021/11/19 01:15:12;;;;;;;8.57;4.30;;;;;;;;;;4974704;28;20093;-71
2021/11/19 01:17:45;;;;;;;7.53;3.75;;;;;;;;;;4975189;28;20131;-78
2021/11/19 01:20:15;;;;;;;10.25;4.20;;;;;;;;;;4973384;28;20086;-77
2021/11/19 01:22:47;;;;;;;5.25;4.25;;;;;;;;;;4973086;28;20043;-71
2021/11/19 01:25:16;;;;;;;7.57;4.32;;;;;;;;;;4973390;28;20528;-72
2021/11/19 01:27:44;;;;;;;8.48;4.03;;;;;;;;;;4973835;28;20593;-71
2021/11/19 01:30:14;;;;;;;8.10;4.22;;;;;;;;;;4973568;28;20502;-70
2021/11/19 01:32:42;;;;;;;10.98;4.40;;;;;;;;;;4973691;28;20074;-74
2021/11/19 01:35:17;;;;;;;12.40;4.70;;;;;;;;;;4973098;28;20097;-72
2021/11/19 01:38:06;;;;;;;7.68;4.20;;;;;;;;;;4973440;28;20446;-73
2021/11/19 01:41:07;;;;;;;7.07;4.20;;;;;;;;;;4964194;28;20141;-73
2021/11/19 01:43:36;;;;;;;8.65;3.80;;;;;;;;;;4934705;29;20102;-78
2021/11/19 01:46:08;;;;;;;7.95;3.90;;;;;;;;;;4953392;29;20483;-73
2021/11/19 01:48:40;;;;;;;7.18;3.85;;;;;;;;;;4937853;29;20387;-73
2021/11/19 01:51:30;;;;;;;10.13;4.55;;;;;;;;;;4954040;29;20043;-73
2021/11/19 01:54:07;;;;;;;11.50;4.40;;;;;;;;;;4938215;28;20383;-74
2021/11/19 01:56:39;;;;;;;5.72;3.33;;;;;;;;;;4954203;29;20055;-72
2021/11/19 01:59:15;;;;;;;11.73;4.18;;;;;;;;;;4938366;29;20051;-72
2021/11/19 02:01:46;;;;;;;7.55;4.05;;;;;;;;;;4953750;28;20039;-77
2021/11/19 02:04:20;;;;;;;8.55;3.70;;;;;;;;;;4937543;29;20062;-74
2021/11/19 02:06:57;;;;;;;6.18;3.42;;;;;;;;;;4953734;28;20059;-71
2021/11/19 02:09:50;;;;;;;5.53;3.90;;;;;;;;;;4927466;29;20480;-77
2021/11/19 02:12:18;;;;;;;9.57;4.03;;;;;;;;;;4937639;29;20047;-77
2021/11/19 02:14:55;;;;;;;9.85;3.78;;;;;;;;;;4953414;29;20055;-72
2021/11/19 02:17:22;;;;;;;8.90;3.75;;;;;;;;;;4954200;29;20078;-72
2021/11/19 02:19:54;;;;;;;8.82;3.72;;;;;;;;;;4937746;29;20054;-70
2021/11/19 02:22:24;;;;;;;6.18;3.38;;;;;;;;;;4953515;29;20077;-73
2021/11/19 02:25:01;;;;;;;6.28;3.58;;;;;;;;;;4937488;29;20415;-70
2021/11/19 02:27:33;;;;;;;6.47;3.30;;;;;;;;;;4953497;29;20075;-78
2021/11/19 02:30:14;;;;;;;8.23;3.72;;;;;;;;;;4937568;29;20081;-77
2021/11/19 02:32:50;;;;;;;6.47;3.40;;;;;;;;;;4953265;28;20058;-72
2021/11/19 02:35:28;;;;;;;4.43;3.13;;;;;;;;;;4941414;29;20411;-70
2021/11/19 02:38:02;;;;;;;8.88;3.47;;;;;;;;;;4957354;29;20106;-73
2021/11/19 02:40:32;;;;;;;8.77;3.50;;;;;;;;;;4941733;29;20454;-77
2021/11/19 02:43:01;;;;;;;6.47;3.08;;;;;;;;;;4957432;29;20048;-72
2021/11/19 02:45:30;;;;;;;7.15;3.22;;;;;;;;;;4957517;28;20047;-77
2021/11/19 02:48:02;;;;;;;5.78;3.08;;;;;;;;;;4957081;29;20094;-71
2021/11/19 02:50:30;;;;;;;7.22;2.92;;;;;;;;;;4957064;29;20416;-73
2021/11/19 02:53:01;;;;;;;12.13;3.37;;;;;;;;;;4941770;29;20101;-77
2021/11/19 02:55:34;;;;;;;8.05;3.60;;;;;;;;;;4956889;29;20048;-73
2021/11/19 02:58:02;;;;;;;7.53;3.92;;;;;;;;;;4957196;29;20047;-73
2021/11/19 03:00:38;;;;;;;8.65;3.95;;;;;;;;;;4957137;29;20094;-73
2021/11/19 03:03:06;;;;;;;6.32;3.65;;;;;;;;;;4940677;29;20529;-74
2021/11/19 03:05:35;;;;;;;7.90;3.78;;;;;;;;;;4956970;29;20079;-73
2021/11/19 03:08:03;;;;;;;4.70;3.03;;;;;;;;;;4956821;29;20133;-71
2021/11/19 03:10:42;;;;;;;6.95;4.50;;;;;;;;;;4956478;28;20590;-72
2021/11/19 03:13:11;;;;;;;8.80;3.90;;;;;;;;;;4957060;29;20401;-73
2021/11/19 03:15:43;;;;;;;5.55;3.58;;;;;;;;;;4953102;28;20050;-70
2021/11/19 03:18:11;;;;;;;6.45;4.15;;;;;;;;;;4975950;28;20047;-77
2021/11/19 03:20:41;;;;;;;6.82;3.50;;;;;;;;;;4976066;28;20058;-73
2021/11/19 03:23:09;;;;;;;8.10;3.63;;;;;;;;;;4977083;28;20122;-72
2021/11/19 03:25:38;;;;;;;6.25;3.75;;;;;;;;;;4959891;28;20101;-70
2021/11/19 03:28:09;;;;;;;5.45;3.80;;;;;;;;;;4959666;28;20046;-71
2021/11/19 03:30:38;;;;;;;7.10;4.28;;;;;;;;;;4975619;28;20051;-72
2021/11/19 03:33:08;;;;;;;8.98;4.70;;;;;;;;;;4959536;28;20058;-78
2021/11/19 03:35:37;;;;;;;6.40;3.70;;;;;;;;;;4959503;28;20051;-72
2021/11/19 03:38:05;;;;;;;9.80;4.68;;;;;;;;;;4959849;28;20039;-77
2021/11/19 03:40:35;;;;;;;7.20;3.92;;;;;;;;;;4976851;28;20070;-73
2021/11/19 03:43:09;;;;;;;6.13;4.07;;;;;;;;;;4975773;28;20466;-74
2021/11/19 03:45:41;;;;;;;7.60;4.07;;;;;;;;;;4958722;28;20071;-73
2021/11/19 03:48:09;;;;;;;8.68;3.67;;;;;;;;;;4959466;28;20209;-73
2021/11/19 03:50:40;;;;;;;7.70;4.38;;;;;;;;;;4976678;28;20074;-73
2021/11/19 03:53:09;;;;;;;7.75;3.53;;;;;;;;;;4975392;28;20367;-70
2021/11/19 03:55:38;;;;;;;7.05;4.20;;;;;;;;;;4959336;28;20039;-70
2021/11/19 03:58:06;;;;;;;11.32;3.80;;;;;;;;;;4959120;28;20057;-71
2021/11/19 04:00:46;;;;;;;6.97;4.10;;;;;;;;;;4958617;28;20121;-72
2021/11/19 04:03:15;;;;;;;6.45;3.80;;;;;;;;;;4959140;28;20047;-70
2021/11/19 04:05:45;;;;;;;9.48;4.00;;;;;;;;;;4959274;28;20490;-73
2021/11/19 04:08:13;;;;;;;9.00;4.28;;;;;;;;;;4959239;28;20654;-70
2021/11/19 04:10:54;;;;;;;7.90;4.25;;;;;;;;;;4959344;28;20059;-70
2021/11/19 04:13:22;;;;;;;8.00;4.15;;;;;;;;;;4958928;28;20047;-72
2021/11/19 04:15:53;;;;;;;8.13;4.15;;;;;;;;;;4958581;28;20051;-72
2021/11/19 04:18:21;;;;;;;6.63;4.20;;;;;;;;;;4959131;28;20381;-74
2021/11/19 04:20:49;;;;;;;10.93;4.07;;;;;;;;;;4958509;28;20109;-74
2021/11/19 04:23:18;;;;;;;8.80;4.10;;;;;;;;;;4958872;28;20039;-71
2021/11/19 04:25:45;;;;;;;6.68;4.78;;;;;;;;;;4958741;28;20133;-70
2021/11/19 04:28:14;;;;;;;6.07;4.00;;;;;;;;;;4958574;28;20054;-73
2021/11/19 04:31:00;;;;;;;7.45;4.45;;;;;;;;;;4975945;28;20070;-73
2021/11/19 04:33:31;;;;;;;5.53;4.30;;;;;;;;;;4958858;28;20046;-73
2021/11/19 04:35:59;;;;;;;4.15;3.60;;;;;;;;;;4958793;28;20069;-74
2021/11/19 04:38:28;;;;;;;6.50;4.03;;;;;;;;;;4958061;28;20039;-73
2021/11/19 04:40:57;;;;;;;6.82;4.65;;;;;;;;;;4958477;28;20046;-70
2021/11/19 04:43:28;;;;;;;7.38;4.47;;;;;;;;;;4942934;28;20074;-72
2021/11/19 04:45:57;;;;;;;9.63;4.40;;;;;;;;;;4958447;28;20129;-70
2021/11/19 04:48:31;;;;;;;10.32;5.00;;;;;;;;;;4974655;28;20047;-73
2021/11/19 04:51:00;;;;;;;9.55;5.00;;;;;;;;;;4973984;28;20054;-77
2021/11/19 04:53:28;;;;;;;12.98;5.65;;;;;;;;;;4942517;28;20102;-73
2021/11/19 04:55:55;;;;;;;9.05;6.18;;;;;;;;;;4975242;28;20068;-78
2021/11/19 04:58:24;;;;;;;15.20;6.93;;;;;;;;;;4974410;28;20053;-72
2021/11/19 05:00:57;;;;;;;10.13;6.93;;;;;;;;;;4975471;28;20598;-73
2021/11/19 05:03:36;;;;;;;13.02;7.85;;;;;;;;;;4957954;28;20097;-72
2021/11/19 05:06:04;;;;;;;11.98;8.13;;;;;;;;;;4957819;28;20055;-73
2021/11/19 05:08:32;;;;;;;17.63;7.60;;;;;;;;;;4958011;28;20042;-74
2021/11/19 05:11:00;;;;;;;14.88;7.43;;;;;;;;;;4974271;28;20079;-78
2021/11/19 05:13:34;;;;;;;11.40;7.00;;;;;;;;;;4957514;28;20138;-72
2021/11/19 05:16:06;;;;;;;11.95;7.72;;;;;;;;;;4957455;28;20054;-70
2021/11/19 05:18:34;;;;;;;14.73;7.68;;;;;;;;;;4974965;28;20046;-73
2021/11/19 05:21:03;;;;;;;9.82;6.03;;;;;;;;;;4973510;28;20066;-72
2021/11/19 05:23:36;;;;;;;10.25;5.63;;;;;;;;;;4957890;28;20043;-73
2021/11/19 05:26:05;;;;;;;13.82;6.45;;;;;;;;;;4957311;28;20093;-73
2021/11/19 05:28:33;;;;;;;9.73;7.50;;;;;;;;;;4957267;28;20507;-70
2021/11/19 05:31:03;;;;;;;10.07;6.07;;;;;;;;;;4957494;28;20055;-70
2021/11/19 05:33:32;;;;;;;15.13;6.10;;;;;;;;;;4957497;28;20081;-72
2021/11/19 05:36:00;;;;;;;9.65;5.88;;;;;;;;;;4957291;28;20047;-70
2021/11/19 05:38:29;;;;;;;10.27;6.00;;;;;;;;;;4957257;28;20054;-71
2021/11/19 05:40:57;;;;;;;11.85;5.88;;;;;;;;;;4956875;28;20409;-73
2021/11/19 05:43:28;;;;;;;10.38;5.75;;;;;;;;;;4957462;28;20101;-72
2021/11/19 05:46:04;;;;;;;10.02;6.03;;;;;;;;;;4957165;28;20106;-71
2021/11/19 05:48:53;;;;;;;10.82;6.22;;;;;;;;;;4973969;28;20054;-70
2021/11/19 05:51:22;;;;;;;10.80;6.35;;;;;;;;;;4957266;28;20439;-71
2021/11/19 05:53:51;;;;;;;14.07;6.03;;;;;;;;;;4973136;28;20058;-78
2021/11/19 05:56:24;;;;;;;7.97;5.03;;;;;;;;;;4973135;28;20038;-72
2021/11/19 05:58:52;;;;;;;8.07;4.85;;;;;;;;;;4957136;28;20054;-73
2021/11/19 06:01:40;;;;;;;8.80;4.63;;;;;;;;;;4972736;28;20046;-73
2021/11/19 06:04:10;;;;;;;11.93;4.90;;;;;;;;;;4957016;28;20436;-72
2021/11/19 06:06:47;;;;;;;8.32;5.28;;;;;;;;;;4957022;28;20098;-78
2021/11/19 06:09:31;;;;;;;5.07;4.53;;;;;;;;;;4973931;28;20042;-70
2021/11/19 06:12:03;;;;;;;11.55;5.20;;;;;;;;;;4972769;28;20113;-73
2021/11/19 06:14:35;;;;;;;9.48;5.38;;;;;;;;;;4972374;28;20057;-72
2021/11/19 06:17:05;;;;;;;8.30;4.78;;;;;;;;;;4956788;28;20130;-78
2021/11/19 06:19:39;;;;;;;7.30;4.32;;;;;;;;;;4972729;28;20042;-78
2021/11/19 06:22:09;;;;;;;5.50;3.72;;;;;;;;;;4956782;28;20050;-71
2021/11/19 06:24:39;;;;;;;9.65;3.90;;;;;;;;;;4972162;28;20054;-74
2021/11/19 06:27:08;;;;;;;8.35;4.00;;;;;;;;;;4956756;28;20051;-72
2021/11/19 06:29:37;;;;;;;7.88;3.85;;;;;;;;;;4972794;28;20050;-73
2021/11/19 06:32:05;;;;;;;13.82;3.75;;;;;;;;;;4974234;28;20038;-74
2021/11/19 06:34:35;;;;;;;8.90;3.78;;;;;;;;;;4956802;28;20078;-71
2021/11/19 06:37:06;;;;;;;8.40;3.75;;;;;;;;;;4956686;28;20507;-71
2021/11/19 06:39:44;;;;;;;6.28;3.75;;;;;;;;;;4955851;28;20407;-71
2021/11/19 06:42:23;;;;;;;7.43;3.92;;;;;;;;;;4956515;28;20046;-78
2021/11/19 06:45:15;;;;;;;8.00;4.07;;;;;;;;;;4955088;28;20606;-74
2021/11/19 06:48:06;;;;;;;10.43;4.10;;;;;;;;;;4973159;28;20061;-78
2021/11/19 06:51:06;;;;;;;6.55;4.05;;;;;;;;;;4951242;28;20193;-71
2021/11/19 06:53:56;;;;;;;7.00;3.63;;;;;;;;;;4955614;28;20059;-71
2021/11/19 06:56:38;;;;;;;5.80;3.83;;;;;;;;;;4956684;28;20134;-74
2021/11/19 06:59:14;;;;;;;8.45;3.60;;;;;;;;;;4956329;28;20047;-73
2021/11/19 07:01:43;;;;;;;6.18;3.55;;;;;;;;;;4956024;28;20109;-78
2021/11/19 07:04:11;;;;;;;8.00;4.03;;;;;;;;;;4971772;28;20039;-78
2021/11/19 07:06:40;;;;;;;8.85;3.60;;;;;;;;;;4972385;28;20116;-75
2021/11/19 07:09:09;;;;;;;10.88;3.83;;;;;;;;;;4955674;28;20042;-78
2021/11/19 07:11:37;;;;;;;9.13;4.45;;;;;;;;;;4955798;28;20569;-71
2021/11/19 07:14:07;;;;;;;8.88;4.40;;;;;;;;;;4956174;28;20396;-73
2021/11/19 07:16:36;;;;;;;10.15;3.95;;;;;;;;;;4956186;28;20050;-78
2021/11/19 07:19:06;;;;;;;9.60;3.65;;;;;;;;;;4972417;28;20078;-74
2021/11/19 07:21:35;;;;;;;12.68;3.72;;;;;;;;;;4975513;28;20051;-71
2021/11/19 07:24:04;;;;;;;7.28;3.97;;;;;;;;;;4959108;28;20459;-75
2021/11/19 07:26:32;;;;;;;7.63;4.10;;;;;;;;;;4959698;28;20421;-71
2021/11/19 07:29:00;;;;;;;11.30;4.70;;;;;;;;;;4959200;28;20054;-76
2021/11/19 07:31:46;;;;;;;5.25;2.50;;;;;;;;;;4976049;28;20057;-79
2021/11/19 07:34:13;;;;;;;10.82;4.00;;;;;;;;;;4958460;28;20434;-71
2021/11/19 07:36:55;;;;;;;8.45;2.90;;;;;;;;;;4958088;28;20134;-71
2021/11/19 07:39:35;;;;;;;4.40;2.30;;;;;;;;;;4958271;28;20050;-75
2021/11/19 07:42:26;;;;;;;4.03;1.75;;;;;;;;;;4968413;28;20057;-75
2021/11/19 07:45:08;;;;;;;4.50;2.28;;;;;;;;;;4975524;28;20505;-70
2021/11/19 07:47:41;;;;;;;11.60;2.15;;;;;;;;;;4975653;28;20043;-78
2021/11/19 07:50:13;;;;;;;7.13;2.00;;;;;;;;;;4959175;28;20054;-71
2021/11/19 07:52:41;;;;;;;6.78;1.58;;;;;;;;;;4958965;28;20050;-72
2021/11/19 07:55:10;;;;;;;6.03;1.65;;;;;;;;;;4975425;28;20168;-70
2021/11/19 07:57:38;;;;;;;3.88;1.50;;;;;;;;;;4959083;28;20047;-75
2021/11/19 08:00:14;;;;;;;5.38;1.50;;;;;;;;;;4959179;28;20130;-74
2021/11/19 08:02:49;;;;;;;3.28;1.80;;;;;;;;;;4975208;28;20419;-76
2021/11/19 08:05:19;;;;;;;6.07;1.98;;;;;;;;;;4959251;28;20053;-74
2021/11/19 08:08:09;;;;;;;7.72;2.47;;;;;;;;;;4974487;28;20039;-75
2021/11/19 08:10:49;;;;;;;6.47;1.80;;;;;;;;;;4958943;28;20059;-70
2021/11/19 08:13:17;;;;;;;3.65;1.80;;;;;;;;;;4958600;28;20138;-70
2021/11/19 08:16:00;;;;;;;7.85;2.60;;;;;;;;;;5033064;28;20053;-74
2021/11/19 08:19:01;;;;;;;4.80;1.85;;;;;;;;;;5033063;28;20060;-71
2021/11/19 08:21:29;;;;;;;5.55;1.67;;;;;;;;;;5016654;28;20115;-74
2021/11/19 08:24:01;;;;;;;4.00;1.83;;;;;;;;;;5017119;28;20415;-74
2021/11/19 08:26:29;;;;;;;3.85;1.90;;;;;;;;;;5034981;28;20042;-78
2021/11/19 08:28:57;;;;;;;6.50;2.20;;;;;;;;;;5017231;28;20042;-70
2021/11/19 08:31:25;;;;;;;5.25;2.10;;;;;;;;;;5016444;28;20435;-72
2021/11/19 08:33:53;;;;;;;9.35;2.60;;;;;;;;;;5034743;28;20101;-78
2021/11/19 08:36:22;;;;;;;8.07;2.70;;;;;;;;;;5034006;28;20037;-74
2021/11/19 08:38:50;;;;;;;6.30;2.78;;;;;;;;;;5034479;28;20426;-70
2021/11/19 08:41:18;;;;;;;5.00;3.03;;;;;;;;;;5034602;28;20456;-75
2021/11/19 08:43:47;;;;;;;9.57;3.10;;;;;;;;;;5016596;28;20080;-78
2021/11/19 08:46:17;;;;;;;8.00;3.75;;;;;;;;;;5034621;28;20053;-74
2021/11/19 08:48:49;;;;;;;7.97;3.40;;;;;;;;;;5034546;28;20099;-78
2021/11/19 08:51:19;;;;;;;7.63;3.45;;;;;;;;;;5015883;28;20063;-71
2021/11/19 08:53:50;;;;;;;6.18;3.58;;;;;;;;;;5034304;28;20052;-72
2021/11/19 08:56:24;;;;;;;12.27;3.67;;;;;;;;;;5034083;28;20050;-70
2021/11/19 08:58:59;;;;;;;8.93;3.55;;;;;;;;;;5034225;28;20378;-72
2021/11/19 09:01:27;;;;;;;5.07;2.65;;;;;;;;;;4999902;28;20147;-71
2021/11/19 09:03:54;;;;;;;8.60;3.10;;;;;;;;;;5015714;28;20045;-71
2021/11/19 09:06:22;;;;;;;5.78;2.65;;;;;;;;;;5000191;28;20546;-73
2021/11/19 09:08:50;;;;;;;7.70;2.88;;;;;;;;;;5033796;28;20408;-75
2021/11/19 09:11:21;;;;;;;10.23;3.50;;;;;;;;;;5033720;28;20099;-74
2021/11/19 09:13:50;;;;;;;7.45;3.00;;;;;;;;;;5033825;28;20065;-75
2021/11/19 09:16:23;;;;;;;10.60;3.60;;;;;;;;;;5016044;28;20045;-78
2021/11/19 09:18:50;;;;;;;13.35;3.40;;;;;;;;;;5033303;28;20041;-78
2021/11/19 09:21:26;;;;;;;5.47;2.75;;;;;;;;;;5033448;28;20041;-73
2021/11/19 09:24:01;;;;;;;7.20;3.80;;;;;;;;;;5015669;28;20075;-72
2021/11/19 09:26:34;;;;;;;12.80;5.35;;;;;;;;;;5033584;28;20045;-71
2021/11/19 09:29:05;;;;;;;10.18;4.13;;;;;;;;;;5015618;28;20049;-70
2021/11/19 09:31:32;;;;;;;9.10;3.35;;;;;;;;;;5015874;28;20136;-72
2021/11/19 09:34:00;;;;;;;9.77;3.88;;;;;;;;;;5015303;28;20060;-75
2021/11/19 09:36:29;;;;;;;9.75;4.07;;;;;;;;;;5033234;28;20038;-72
2021/11/19 09:38:57;;;;;;;11.98;3.92;;;;;;;;;;5033062;28;20128;-71
2021/11/19 09:41:36;;;;;;;9.57;3.85;;;;;;;;;;5032813;28;20037;-75
2021/11/19 09:44:23;;;;;;;13.73;4.05;;;;;;;;;;5032843;28;20037;-77
2021/11/19 09:46:50;;;;;;;6.63;2.90;;;;;;;;;;5015661;28;20041;-72
2021/11/19 09:49:36;;;;;;;4.88;2.70;;;;;;;;;;5014852;28;20041;-78
2021/11/19 09:52:22;;;;;;;4.18;3.25;;;;;;;;;;5033444;28;20124;-75
2021/11/19 09:54:59;;;;;;;6.63;3.00;;;;;;;;;;5033281;28;20147;-74
2021/11/19 09:57:46;;;;;;;5.50;2.55;;;;;;;;;;5032952;28;20076;-78
2021/11/19 10:00:23;;;;;;;6.85;2.60;;;;;;;;;;5015148;28;20572;-72
2021/11/19 10:02:51;;;;;;;7.32;2.67;;;;;;;;;;5032450;28;20037;-72
2021/11/19 10:05:40;;;;;;;4.30;2.38;;;;;;;;;;5033020;28;20065;-71
2021/11/19 10:08:07;;;;;;;6.38;2.75;;;;;;;;;;5015250;28;20396;-75
2021/11/19 10:10:47;;;;;;;10.75;2.80;;;;;;;;;;5015045;28;20045;-71
2021/11/19 10:13:24;;;;;;;7.30;3.10;;;;;;;;;;5014684;28;20053;-78
2021/11/19 10:16:11;;;;;;;4.35;2.13;;;;;;;;;;5032821;28;20046;-75
2021/11/19 10:18:45;;;;;;;3.22;2.20;;;;;;;;;;5032474;28;20116;-77
2021/11/19 10:21:15;;;;;;;4.30;2.05;;;;;;;;;;5032648;28;20133;-71
2021/11/19 10:24:00;;;;;;;6.80;2.38;;;;;;;;;;5032717;28;20045;-75
2021/11/19 10:26:33;;;;;;;5.05;2.30;;;;;;;;;;5032827;28;20197;-75
2021/11/19 10:29:10;;;;;;;4.82;2.40;;;;;;;;;;5032281;28;20068;-72
2021/11/19 10:31:37;;;;;;;3.63;2.22;;;;;;;;;;5032021;28;20038;-71
2021/11/19 10:34:06;;;;;;;4.68;2.17;;;;;;;;;;5032427;28;20399;-78
2021/11/19 10:36:38;;;;;;;6.75;2.22;;;;;;;;;;5014501;28;20053;-73
2021/11/19 10:39:25;;;;;;;5.57;2.78;;;;;;;;;;5032444;28;20069;-72
2021/11/19 10:42:14;;;;;;;5.13;2.20;;;;;;;;;;5014491;28;20077;-76
2021/11/19 10:44:49;;;;;;;3.92;2.10;;;;;;;;;;5014789;28;20041;-75
2021/11/19 10:47:33;;;;;;;5.25;2.47;;;;;;;;;;5032146;28;20079;-73
2021/11/19 10:50:17;;;;;;;4.07;2.28;;;;;;;;;;5032224;28;20049;-75
2021/11/19 10:52:51;;;;;;;4.82;2.40;;;;;;;;;;5032218;28;20053;-76
2021/11/19 10:55:20;;;;;;;4.22;2.10;;;;;;;;;;5035103;28;20140;-72
2021/11/19 10:58:09;;;;;;;6.20;2.40;;;;;;;;;;5018066;28;20037;-71
2021/11/19 11:00:40;;;;;;;4.32;1.95;;;;;;;;;;5002418;28;20041;-73
2021/11/19 11:03:11;;;;;;;4.38;2.00;;;;;;;;;;5036389;28;20048;-78
2021/11/19 11:05:41;;;;;;;5.30;2.20;;;;;;;;;;5018693;28;20049;-75
2021/11/19 11:08:23;;;;;;;3.58;2.22;;;;;;;;;;5018180;28;20417;-79
2021/11/19 11:10:53;;;;;;;6.35;2.10;;;;;;;;;;5018848;28;20116;-73
2021/11/19 11:13:26;;;;;;;7.40;2.30;;;;;;;;;;5035565;28;20049;-75
2021/11/19 11:15:59;;;;;;;8.70;2.30;;;;;;;;;;5017838;28;20132;-74
2021/11/19 11:18:49;;;;;;;6.25;2.22;;;;;;;;;;5035723;28;20120;-78
2021/11/19 11:21:24;;;;;;;11.80;3.65;;;;;;;;;;5010796;28;20060;-78
2021/11/19 11:23:56;;;;;;;2.80;2.35;;;;;;;;;;5035726;28;20103;-77
2021/11/19 11:26:37;;;;;;;3.40;2.40;;;;;;;;;;5002044;28;20506;-72
2021/11/19 11:29:16;;;;;;;5.07;2.80;;;;;;;;;;5035298;28;20459;-78
2021/11/19 11:31:57;;;;;;;6.32;2.80;;;;;;;;;;5018059;28;20053;-72
2021/11/19 11:34:34;;;;;;;5.93;3.17;;;;;;;;;;5018470;28;20065;-75
2021/11/19 11:37:08;;;;;;;7.22;3.30;;;;;;;;;;5018586;28;20055;-74
2021/11/19 11:39:41;;;;;;;3.35;2.70;;;;;;;;;;5018131;28;20049;-72
2021/11/19 11:42:27;;;;;;;8.13;3.10;;;;;;;;;;5035546;28;20070;-72
2021/11/19 11:44:56;;;;;;;6.93;3.05;;;;;;;;;;5035145;28;20046;-75
2021/11/19 11:48:00;;;;;;;5.35;3.13;;;;;;;;;;5035779;28;20429;-72
2021/11/19 11:50:29;;;;;;;;;;;;;;;;;;4943204;28;20054;-71
2021/11/19 11:53:06;;;;;;;7.40;2.65;;;;;;;;;;5024968;28;20304;-74
2021/11/19 11:55:34;;;;;;;7.00;4.25;;;;;;;;;;5035731;28;20069;-79
2021/11/19 11:58:07;;;;;;;3.55;2.95;;;;;;;;;;5000705;28;20503;-74
2021/11/19 12:00:35;;;;;;;3.67;2.80;;;;;;;;;;5034876;28;20068;-72
2021/11/19 12:03:17;;;;;;;7.70;2.88;;;;;;;;;;5034713;28;20057;-71
2021/11/19 12:06:03;;;;;;;6.07;3.00;;;;;;;;;;5000667;28;20041;-71
2021/11/19 12:08:47;;;;;;;4.57;3.30;;;;;;;;;;5034730;28;20512;-75
2021/11/19 12:11:41;;;;;;;7.60;2.83;;;;;;;;;;5016770;28;20361;-71
2021/11/19 12:14:11;;;;;;;5.78;2.75;;;;;;;;;;5011294;28;20140;-72
2021/11/19 12:16:42;;;;;;;5.03;3.10;;;;;;;;;;5034734;28;20072;-71
2021/11/19 12:19:29;;;;;;;8.43;3.03;;;;;;;;;;5034576;28;20038;-76
2021/11/19 12:22:15;;;;;;;5.60;2.40;;;;;;;;;;5017181;28;20029;-73
2021/11/19 12:24:43;;;;;;;6.50;2.60;;;;;;;;;;5034155;28;20050;-71
2021/11/19 12:27:17;;;;;;;6.15;2.75;;;;;;;;;;5034283;28;20052;-72
2021/11/19 12:29:51;;;;;;;3.83;2.35;;;;;;;;;;5017151;28;20049;-75
2021/11/19 12:32:22;;;;;;;3.72;2.30;;;;;;;;;;5016756;28;20049;-72
2021/11/19 12:34:55;;;;;;;6.70;2.80;;;;;;;;;;5034292;28;20087;-79
2021/11/19 12:37:43;;;;;;;4.40;2.72;;;;;;;;;;5034490;28;20475;-75
2021/11/19 12:40:23;;;;;;;5.57;2.88;;;;;;;;;;5024462;28;20049;-72
2021/11/19 12:42:56;;;;;;;6.90;2.63;;;;;;;;;;5033793;28;20076;-73
2021/11/19 12:45:32;;;;;;;7.53;3.03;;;;;;;;;;5016673;28;20494;-71
2021/11/19 12:48:06;;;;;;;6.30;2.60;;;;;;;;;;5016965;28;20068;-78
2021/11/19 12:50:36;;;;;;;5.95;2.33;;;;;;;;;;5015997;28;20464;-71
2021/11/19 12:53:27;;;;;;;15.68;5.28;;;;;;;;;;5016773;28;20049;-73
2021/11/19 12:56:19;;;;;;;6.05;2.30;;;;;;;;;;5033741;28;20085;-79
2021/11/19 12:58:49;;;;;;;5.78;1.90;;;;;;;;;;5034408;28;20064;-72
2021/11/19 13:01:28;;;;;;;4.30;2.03;;;;;;;;;;5033689;28;20518;-71
2021/11/19 13:03:59;;;;;;;3.90;2.20;;;;;;;;;;5018591;28;20153;-78
2021/11/19 13:06:42;;;;;;;4.20;2.13;;;;;;;;;;5025155;28;20048;-71
2021/11/19 13:09:13;;;;;;;4.72;1.80;;;;;;;;;;5040765;28;20140;-73
2021/11/19 13:12:03;;;;;;;4.20;2.10;;;;;;;;;;5034877;28;20044;-78
2021/11/19 13:14:31;;;;;;;5.93;1.95;;;;;;;;;;5014120;28;20058;-71
2021/11/19 13:17:02;;;;;;;4.15;2.20;;;;;;;;;;4996354;28;20049;-75
2021/11/19 13:19:32;;;;;;;5.75;2.15;;;;;;;;;;5013708;28;20113;-72
2021/11/19 13:22:01;;;;;;;7.70;2.72;;;;;;;;;;4996206;28;20049;-72
2021/11/19 13:24:28;;;;;;;6.10;3.03;;;;;;;;;;4996665;28;20045;-75
2021/11/19 13:26:59;;;;;;;4.80;2.80;;;;;;;;;;5013624;28;20054;-72
2021/11/19 13:29:33;;;;;;;5.88;2.60;;;;;;;;;;4995643;28;20046;-75
2021/11/19 13:32:22;;;;;;;4.45;2.72;;;;;;;;;;5013703;28;20069;-75
2021/11/19 13:34:54;;;;;;;3.25;2.20;;;;;;;;;;5013625;28;20442;-77
2021/11/19 13:37:22;;;;;;;5.18;2.60;;;;;;;;;;4996127;28;20046;-75
2021/11/19 13:39:53;;;;;;;3.78;2.15;;;;;;;;;;4995814;28;20045;-70
2021/11/19 13:42:24;;;;;;;3.60;2.30;;;;;;;;;;4996653;28;20128;-72
2021/11/19 13:45:01;;;;;;;3.63;2.30;;;;;;;;;;5013556;28;20204;-72
2021/11/19 13:47:36;;;;;;;4.45;2.13;;;;;;;;;;5013866;28;20081;-78
2021/11/19 13:50:07;;;;;;;4.65;2.33;;;;;;;;;;5013536;28;20080;-79
2021/11/19 13:52:45;;;;;;;8.57;3.03;;;;;;;;;;5013846;28;20118;-75
2021/11/19 13:55:32;;;;;;;5.10;2.42;;;;;;;;;;4995612;28;20075;-78
2021/11/19 13:58:29;;;;;;;4.70;2.88;;;;;;;;;;5013513;28;20453;-74
2021/11/19 14:00:59;;;;;;;4.72;3.00;;;;;;;;;;4995931;28;20050;-71
2021/11/19 14:03:31;;;;;;;5.30;2.17;;;;;;;;;;4995599;28;20048;-71
2021/11/19 14:06:18;;;;;;;6.13;2.80;;;;;;;;;;5013527;28;20378;-71
2021/11/19 14:08:57;;;;;;;6.70;2.38;;;;;;;;;;4995426;28;20140;-71
2021/11/19 14:11:29;;;;;;;4.18;2.53;;;;;;;;;;4996519;28;20468;-75
2021/11/19 14:13:58;;;;;;;5.50;2.22;;;;;;;;;;5011472;28;20076;-72
2021/11/19 14:16:30;;;;;;;5.53;2.50;;;;;;;;;;5014500;28;20049;-72
2021/11/19 14:19:07;;;;;;;3.92;2.20;;;;;;;;;;5015008;28;20495;-78
2021/11/19 14:21:57;;;;;;;4.30;2.70;;;;;;;;;;5015261;28;20049;-75
2021/11/19 14:24:41;;;;;;;6.93;3.15;;;;;;;;;;5015523;28;20400;-70
2021/11/19 14:27:18;;;;;;;9.00;2.58;;;;;;;;;;5031237;28;20073;-75
2021/11/19 14:29:48;;;;;;;5.63;1.88;;;;;;;;;;5045978;28;20041;-72
2021/11/19 14:32:36;;;;;;;8.70;2.42;;;;;;;;;;5032681;28;20088;-77
2021/11/19 14:35:28;;;;;;;8.73;3.13;;;;;;;;;;5032392;28;20045;-71
2021/11/19 14:37:58;;;;;;;5.50;2.58;;;;;;;;;;5014115;28;20136;-71
2021/11/19 14:40:25;;;;;;;5.20;2.50;;;;;;;;;;5032703;28;20052;-71
2021/11/19 14:42:54;;;;;;;5.25;2.42;;;;;;;;;;5014596;28;20124;-71
2021/11/19 14:45:23;;;;;;;6.00;2.30;;;;;;;;;;5032520;28;20041;-78
2021/11/19 14:48:20;;;;;;;5.63;2.50;;;;;;;;;;5014811;28;20049;-73
2021/11/19 14:51:05;;;;;;;3.25;2.50;;;;;;;;;;5030468;28;20042;-78
2021/11/19 14:53:52;;;;;;;4.30;2.85;;;;;;;;;;5015998;28;20518;-72
2021/11/19 14:56:20;;;;;;;6.72;2.40;;;;;;;;;;5032162;28;20469;-72
2021/11/19 14:59:00;;;;;;;7.97;2.63;;;;;;;;;;5010425;28;20048;-72
2021/11/19 15:01:28;;;;;;;9.00;2.40;;;;;;;;;;5010346;28;20045;-71
2021/11/19 15:04:04;;;;;;;6.25;2.25;;;;;;;;;;5012756;28;20053;-80
2021/11/19 15:06:33;;;;;;;3.40;2.30;;;;;;;;;;5010090;28;20042;-73
2021/11/19 15:09:09;;;;;;;4.78;2.22;;;;;;;;;;5008942;28;20129;-73
2021/11/19 15:11:51;;;;;;;5.88;3.40;;;;;;;;;;5010967;28;20125;-78
2021/11/19 15:14:19;;;;;;;4.00;2.08;;;;;;;;;;5009802;28;20081;-75
2021/11/19 15:16:46;;;;;;;5.75;2.40;;;;;;;;;;5010746;28;20050;-75
2021/11/19 15:19:50;;;;;;;3.47;2.40;;;;;;;;;;5009462;28;20054;-71